Time;durP1;ratioP1;P1;durP2;ratioP2;P2;SDS_P1;SDS_P2;PMS_P1;PMS_P2;Temp;Humidity;BMP_temperature;BMP_pressure;BME280_temperature;BME280_humidity;BME280_pressure;Samples;Min_cycle;Max_cycle;Signal;HPM_P1;HPM_P2
2023/02/09 00:01:59;;;;;;;10.68;4.45;;;;;;;6.77;34.79;103031.94;5032943;28;20524;-63
2023/02/09 00:04:24;;;;;;;8.73;4.18;;;;;;;6.75;36.02;103027.59;5038812;28;20036;-61
2023/02/09 00:06:50;;;;;;;13.23;4.70;;;;;;;6.73;36.53;103021.44;5052762;28;20493;-64
2023/02/09 00:09:15;;;;;;;15.73;5.53;;;;;;;6.69;35.25;103019.81;5052783;28;20373;-62
2023/02/09 00:14:24;;;;;;;7.90;4.65;;;;;;;6.61;35.52;103021.84;5051429;28;20121;-63
2023/02/09 00:16:51;;;;;;;11.20;4.93;;;;;;;6.58;36.56;103021.94;5051063;28;20057;-64
2023/02/09 00:19:17;;;;;;;7.10;3.97;;;;;;;6.57;35.05;103022.84;5051319;28;20104;-63
2023/02/09 00:21:43;;;;;;;12.50;4.68;;;;;;;6.58;34.87;103021.94;5052276;28;20029;-63
2023/02/09 00:24:09;;;;;;;10.93;4.47;;;;;;;6.59;36.44;103008.56;5051378;28;20013;-64
2023/02/09 00:26:35;;;;;;;6.10;3.72;;;;;;;6.60;36.46;103005.00;5052234;28;20072;-64
2023/02/09 00:29:01;;;;;;;12.40;4.32;;;;;;;6.62;36.64;103015.59;5056180;28;20037;-63
2023/02/09 00:31:26;;;;;;;7.72;3.60;;;;;;;6.63;36.45;103009.34;5054715;28;20397;-63
2023/02/09 00:33:52;;;;;;;8.27;3.72;;;;;;;6.64;35.23;103011.09;5056027;28;20044;-63
2023/02/09 00:36:17;;;;;;;8.15;3.80;;;;;;;6.65;36.19;103012.81;5056505;28;20112;-63
2023/02/09 00:38:43;;;;;;;7.10;3.65;;;;;;;6.66;36.14;103019.91;5056216;28;20036;-63
2023/02/09 00:41:09;;;;;;;7.93;4.03;;;;;;;6.65;35.63;103023.47;5056026;28;20067;-63
2023/02/09 00:43:34;;;;;;;5.90;3.38;;;;;;;6.64;35.32;103016.44;5056826;28;20033;-62
2023/02/09 00:46:00;;;;;;;10.13;3.90;;;;;;;6.64;35.25;103027.06;5057994;28;20070;-64
2023/02/09 00:48:25;;;;;;;6.95;3.40;;;;;;;6.64;35.49;103027.06;5054972;28;20100;-63
2023/02/09 00:50:51;;;;;;;7.15;4.35;;;;;;;6.62;36.59;103018.25;5055686;28;20386;-64
2023/02/09 00:53:18;;;;;;;6.05;3.00;;;;;;;6.60;35.43;103017.44;5055531;28;20493;-64
2023/02/09 00:55:43;;;;;;;8.20;3.78;;;;;;;6.61;36.17;103019.19;5054904;28;20120;-63
2023/02/09 00:58:08;;;;;;;5.97;3.08;;;;;;;6.60;36.46;103014.78;5055710;28;20478;-62
2023/02/09 01:00:34;;;;;;;9.52;3.28;;;;;;;6.59;36.04;103024.53;5055685;28;20025;-64
2023/02/09 01:02:59;;;;;;;5.30;2.88;;;;;;;6.58;35.43;103024.59;5055993;28;20025;-63
2023/02/09 01:05:24;;;;;;;10.60;4.20;;;;;;;6.53;35.32;103022.09;5055398;28;20037;-63
2023/02/09 01:07:50;;;;;;;11.30;3.70;;;;;;;6.52;35.79;103032.78;5053968;28;20087;-63
2023/02/09 01:10:15;;;;;;;9.10;3.92;;;;;;;6.51;35.77;103031.03;5055537;28;20037;-64
2023/02/09 01:12:41;;;;;;;8.85;3.92;;;;;;;6.50;35.36;103029.31;5055311;28;20393;-64
2023/02/09 01:15:08;;;;;;;6.85;3.45;;;;;;;6.52;37.03;103024.81;5055504;28;20071;-64
2023/02/09 01:17:33;;;;;;;9.27;3.47;;;;;;;6.51;37.10;103020.38;5055074;28;20060;-64
2023/02/09 01:19:58;;;;;;;8.35;3.20;;;;;;;6.56;35.94;103015.81;5055385;28;20029;-64
2023/02/09 01:22:24;;;;;;;9.27;4.07;;;;;;;6.62;37.05;103018.25;5055155;28;20124;-62
2023/02/09 01:24:49;;;;;;;7.93;3.15;;;;;;;6.69;35.13;103011.81;5055205;28;20045;-63
2023/02/09 01:27:15;;;;;;;6.38;3.42;;;;;;;6.78;36.44;103014.19;5055462;28;20025;-62
2023/02/09 01:29:40;;;;;;;10.60;3.60;;;;;;;6.85;37.23;103013.91;5054911;28;20033;-64
2023/02/09 01:32:06;;;;;;;7.57;3.78;;;;;;;6.95;35.13;103025.16;5054940;28;20029;-62
2023/02/09 01:34:31;;;;;;;9.05;3.78;;;;;;;7.02;35.17;103016.00;5054857;28;20033;-63
2023/02/09 01:36:57;;;;;;;7.22;3.63;;;;;;;7.08;35.69;103025.56;5055257;28;20025;-63
2023/02/09 01:39:22;;;;;;;9.60;4.00;;;;;;;7.11;36.23;103023.69;5054079;28;20496;-63
2023/02/09 01:41:48;;;;;;;9.70;4.32;;;;;;;7.13;36.83;103021.84;5054873;28;20033;-64
2023/02/09 01:44:13;;;;;;;5.68;3.17;;;;;;;7.15;35.99;103013.75;5054783;28;20033;-63
2023/02/09 01:46:38;;;;;;;8.02;4.22;;;;;;;7.13;36.69;103005.84;5054781;28;20033;-63
2023/02/09 01:49:08;;;;;;;8.80;3.40;;;;;;;7.14;36.06;103010.25;5053730;28;20075;-64
2023/02/09 01:51:36;;;;;;;6.78;3.40;;;;;;;7.13;35.97;103016.50;5054716;28;20163;-64
2023/02/09 01:54:05;;;;;;;10.75;4.20;;;;;;;7.12;35.05;103017.41;5053936;28;20112;-64
2023/02/09 01:56:31;;;;;;;13.13;3.70;;;;;;;7.12;35.30;103020.06;5054820;28;20052;-63
2023/02/09 01:58:57;;;;;;;8.15;4.20;;;;;;;7.11;36.68;103023.69;5053359;28;20493;-64
2023/02/09 02:01:22;;;;;;;11.00;4.07;;;;;;;7.12;35.91;103025.41;5054540;28;20037;-63
2023/02/09 02:03:48;;;;;;;9.32;3.85;;;;;;;7.12;36.13;103030.72;5053424;28;20424;-64
2023/02/09 02:06:14;;;;;;;11.13;4.03;;;;;;;7.12;34.96;103029.91;5054749;28;20546;-64
2023/02/09 02:08:44;;;;;;;7.60;4.60;;;;;;;7.09;35.24;103030.84;5054376;28;20489;-64
2023/02/09 02:11:10;;;;;;;19.92;3.50;;;;;;;7.03;36.81;103031.91;5054318;28;20139;-65
2023/02/09 02:13:35;;;;;;;11.80;4.53;;;;;;;7.00;36.26;103031.19;5054248;28;20469;-63
2023/02/09 02:16:04;;;;;;;7.57;4.03;;;;;;;6.96;35.20;103032.19;5052825;28;20492;-64
2023/02/09 02:18:38;;;;;;;8.98;3.10;;;;;;;6.92;36.08;103027.91;5054772;28;20048;-65
2023/02/09 02:21:10;;;;;;;9.52;4.10;;;;;;;6.90;36.43;103029.72;5054281;28;20040;-64
2023/02/09 02:23:41;;;;;;;11.73;4.30;;;;;;;6.88;36.63;103026.25;5054070;28;20041;-64
2023/02/09 02:26:26;;;;;;;14.10;4.63;;;;;;;6.86;36.15;103033.44;5052882;28;20045;-63
2023/02/09 02:29:03;;;;;;;7.55;3.50;;;;;;;6.84;35.68;103030.81;5055754;28;20067;-63
2023/02/09 02:31:47;;;;;;;11.27;3.72;;;;;;;6.83;36.95;103022.88;5053849;28;20048;-63
2023/02/09 02:34:27;;;;;;;17.70;4.70;;;;;;;6.79;35.88;103026.56;5054197;28;20132;-64
2023/02/09 02:37:13;;;;;;;7.00;3.97;;;;;;;6.76;36.82;103026.66;5052933;28;20044;-63
2023/02/09 02:40:00;;;;;;;9.48;4.15;;;;;;;6.73;35.44;103021.44;5053794;28;20182;-62
2023/02/09 02:42:57;;;;;;;9.18;4.45;;;;;;;6.66;37.14;103027.88;5054169;28;20116;-63
2023/02/09 02:45:28;;;;;;;12.02;4.38;;;;;;;6.62;37.04;103023.56;5047709;28;20540;-63
2023/02/09 02:48:00;;;;;;;9.52;3.80;;;;;;;6.58;35.85;103019.28;5053620;28;20110;-64
2023/02/09 02:50:29;;;;;;;8.27;3.83;;;;;;;6.55;35.95;103014.06;5051735;28;20033;-63
2023/02/09 02:52:56;;;;;;;6.43;3.63;;;;;;;6.53;35.08;103015.91;5053536;28;20029;-62
2023/02/09 02:55:24;;;;;;;5.93;3.88;;;;;;;6.51;36.97;103005.28;5052370;28;20099;-63
2023/02/09 02:57:51;;;;;;;9.63;3.70;;;;;;;6.50;37.02;103006.22;5052387;28;20032;-64
2023/02/09 03:00:20;;;;;;;10.88;4.00;;;;;;;6.49;36.70;103011.59;5052711;28;20021;-63
2023/02/09 03:02:49;;;;;;;9.75;3.67;;;;;;;6.48;36.60;103012.53;5051984;28;20056;-63
2023/02/09 03:05:16;;;;;;;11.45;4.43;;;;;;;6.46;36.04;103007.22;5051969;28;20124;-64
2023/02/09 03:07:42;;;;;;;11.15;4.00;;;;;;;6.44;35.79;103012.63;5052056;28;20037;-63
2023/02/09 03:10:27;;;;;;;7.15;3.75;;;;;;;6.43;37.32;103018.84;5053326;28;20052;-63
2023/02/09 03:13:15;;;;;;;7.80;5.30;;;;;;;6.42;35.50;103016.25;5053261;28;20045;-63
2023/02/09 03:16:03;;;;;;;8.23;4.13;;;;;;;6.40;36.25;103016.28;5052786;28;20416;-63
2023/02/09 03:18:46;;;;;;;7.65;3.22;;;;;;;6.41;36.79;103014.50;5045073;28;20449;-62
2023/02/09 03:21:27;;;;;;;;;;;;;;;6.40;36.35;103007.44;5052282;28;20555;-62
2023/02/09 03:23:53;;;;;;;9.45;3.75;;;;;;;6.39;35.65;103008.38;5051593;28;20023;-63
2023/02/09 03:26:22;;;;;;;13.32;4.13;;;;;;;6.38;36.89;102998.63;5052677;28;20541;-62
2023/02/09 03:28:48;;;;;;;8.35;3.53;;;;;;;6.37;35.32;103003.06;5053176;28;20037;-64
2023/02/09 03:31:14;;;;;;;10.27;4.35;;;;;;;6.32;36.72;102994.38;5052812;28;20468;-63
2023/02/09 03:33:40;;;;;;;11.20;4.07;;;;;;;6.34;35.78;103003.16;5052681;28;20059;-64
2023/02/09 03:36:09;;;;;;;7.68;4.05;;;;;;;6.33;37.43;103006.78;5053350;28;20079;-62
2023/02/09 03:38:34;;;;;;;8.40;4.30;;;;;;;6.30;37.30;103001.53;5051675;28;20095;-63
2023/02/09 03:40:59;;;;;;;8.48;3.58;;;;;;;6.28;36.39;102998.03;5052825;28;20045;-62
2023/02/09 03:44:25;;;;;;;8.43;3.58;;;;;;;6.28;35.71;102986.56;5052933;28;20477;-63
2023/02/09 03:46:10;;;;;;;9.75;4.05;;;;;;;6.26;36.88;102981.25;5052713;28;20519;-62
2023/02/09 03:48:36;;;;;;;11.20;4.45;;;;;;;6.23;36.24;102973.38;5052995;28;20028;-63
2023/02/09 03:51:01;;;;;;;7.05;4.03;;;;;;;6.21;36.98;102980.53;5052872;28;20029;-63
2023/02/09 03:53:26;;;;;;;11.10;4.15;;;;;;;6.19;36.23;102977.06;5052728;28;20047;-63
2023/02/09 03:55:52;;;;;;;8.40;3.35;;;;;;;6.19;36.59;102979.72;5052710;28;20102;-63
2023/02/09 03:58:17;;;;;;;6.60;3.38;;;;;;;6.18;36.24;102970.00;5052673;28;20504;-63
2023/02/09 04:00:42;;;;;;;8.50;4.15;;;;;;;6.16;36.18;102966.53;5052726;28;20037;-62
2023/02/09 04:03:08;;;;;;;10.95;4.28;;;;;;;6.15;36.69;102970.09;5055620;28;20037;-63
2023/02/09 04:05:33;;;;;;;9.65;3.35;;;;;;;6.13;36.51;102966.59;5055297;28;20040;-63
2023/02/09 04:07:59;;;;;;;13.70;3.85;;;;;;;6.11;36.15;102971.13;5056642;28;20067;-63
2023/02/09 04:10:24;;;;;;;5.05;3.97;;;;;;;6.08;36.63;102968.56;5056381;28;20477;-63
2023/02/09 04:12:50;;;;;;;10.52;3.72;;;;;;;6.05;36.10;102973.09;5055463;28;20029;-62
2023/02/09 04:15:15;;;;;;;7.13;4.32;;;;;;;6.01;35.68;102958.13;5057209;28;20044;-64
2023/02/09 04:17:40;;;;;;;11.88;4.20;;;;;;;5.98;37.32;102951.13;5056885;28;20048;-64
2023/02/09 04:20:06;;;;;;;5.53;3.00;;;;;;;5.96;35.96;102955.63;5056208;28;20033;-63
2023/02/09 04:22:32;;;;;;;9.80;4.50;;;;;;;5.95;36.73;102945.00;5056235;28;20123;-65
2023/02/09 04:24:57;;;;;;;7.15;3.72;;;;;;;5.95;36.79;102951.22;5056040;28;20049;-63
2023/02/09 04:27:22;;;;;;;13.02;4.15;;;;;;;5.95;36.79;102945.88;5056879;28;20040;-63
2023/02/09 04:29:48;;;;;;;10.73;3.25;;;;;;;5.98;35.94;102952.91;5056314;28;20416;-63
2023/02/09 04:32:13;;;;;;;9.48;4.30;;;;;;;5.98;36.82;102955.56;5056218;28;20037;-64
2023/02/09 04:34:38;;;;;;;8.52;4.40;;;;;;;5.99;36.42;102944.88;5056195;28;20497;-63
2023/02/09 04:37:04;;;;;;;10.93;3.72;;;;;;;5.99;37.59;102947.56;5056252;28;20041;-64
2023/02/09 04:39:29;;;;;;;3.95;3.00;;;;;;;5.98;37.33;102940.47;5054991;28;20481;-63
2023/02/09 04:41:55;;;;;;;7.43;3.58;;;;;;;5.98;37.48;102943.13;5056004;28;20037;-63
2023/02/09 04:44:20;;;;;;;11.50;3.65;;;;;;;5.97;35.75;102944.06;5056055;28;20124;-63
2023/02/09 04:46:45;;;;;;;10.75;4.25;;;;;;;5.95;36.68;102961.84;5054662;28;20029;-63
2023/02/09 04:49:11;;;;;;;7.18;4.13;;;;;;;5.94;37.33;102954.81;5056016;28;20043;-64
2023/02/09 04:51:36;;;;;;;9.10;3.92;;;;;;;5.91;36.75;102970.84;5056142;28;20028;-64
2023/02/09 04:54:02;;;;;;;9.18;4.10;;;;;;;5.89;35.95;102962.03;5056397;28;20120;-63
2023/02/09 04:56:27;;;;;;;9.10;4.03;;;;;;;5.87;36.60;102969.19;5055625;28;20083;-63
2023/02/09 05:01:36;;;;;;;7.90;3.85;;;;;;;5.81;36.67;102964.03;5055422;28;20404;-63
2023/02/09 05:04:02;;;;;;;10.25;3.95;;;;;;;5.78;36.62;102954.34;5054336;28;20116;-63
2023/02/09 05:06:27;;;;;;;11.05;4.57;;;;;;;5.73;37.59;102950.97;5055754;28;20078;-64
2023/02/09 05:08:52;;;;;;;13.27;3.63;;;;;;;5.72;36.70;102953.69;5055392;28;20524;-62
2023/02/09 05:11:18;;;;;;;7.78;3.45;;;;;;;5.69;35.89;102953.78;5055269;28;20033;-64
2023/02/09 05:13:43;;;;;;;12.52;4.03;;;;;;;5.66;36.00;102940.56;5054877;28;20049;-62
2023/02/09 05:16:13;;;;;;;7.25;3.38;;;;;;;5.64;36.34;102929.13;5054245;28;20037;-64
2023/02/09 05:18:38;;;;;;;8.63;3.70;;;;;;;5.58;37.19;102924.88;5055361;28;20511;-62
2023/02/09 05:21:04;;;;;;;10.25;4.03;;;;;;;5.56;36.50;102926.66;5055672;28;20017;-64
2023/02/09 05:23:29;;;;;;;14.65;4.43;;;;;;;5.53;36.76;102928.53;5054978;28;20120;-63
2023/02/09 05:25:55;;;;;;;10.35;4.32;;;;;;;5.50;37.27;102926.84;5055169;28;20136;-63
2023/02/09 05:28:21;;;;;;;14.60;3.28;;;;;;;5.47;37.81;102926.09;5040140;28;20041;-64
2023/02/09 05:30:52;;;;;;;7.20;3.33;;;;;;;5.47;36.69;102918.13;5034933;28;20026;-61
2023/02/09 05:33:21;;;;;;;5.85;4.00;;;;;;;5.48;36.94;102906.56;5035364;28;20109;-63
2023/02/09 05:35:46;;;;;;;8.93;4.00;;;;;;;5.48;36.05;102907.44;5033742;28;20046;-64
2023/02/09 05:38:12;;;;;;;6.43;4.28;;;;;;;5.48;37.80;102906.56;5035049;28;20034;-63
2023/02/09 05:40:37;;;;;;;10.07;4.45;;;;;;;5.46;36.31;102903.94;5035306;28;20036;-63
2023/02/09 05:43:03;;;;;;;8.68;4.18;;;;;;;5.48;38.22;102909.22;5033800;28;20485;-63
2023/02/09 05:45:28;;;;;;;9.18;3.80;;;;;;;5.52;36.46;102916.19;5035199;28;20071;-63
2023/02/09 05:47:53;;;;;;;9.15;3.55;;;;;;;5.54;38.27;102914.34;5034730;28;20045;-64
2023/02/09 05:50:19;;;;;;;8.48;4.25;;;;;;;5.56;36.79;102916.03;5033241;28;20041;-63
2023/02/09 05:52:44;;;;;;;12.05;4.60;;;;;;;5.58;36.79;102929.31;5034606;28;20401;-64
2023/02/09 05:55:10;;;;;;;9.70;4.57;;;;;;;5.58;37.69;102929.31;5035178;28;20122;-64
2023/02/09 05:57:35;;;;;;;16.27;4.60;;;;;;;5.59;36.77;102928.38;5034809;28;20052;-64
2023/02/09 06:00:01;;;;;;;14.45;4.60;;;;;;;5.58;37.94;102926.66;5034869;28;20021;-64
2023/02/09 06:02:26;;;;;;;11.00;4.32;;;;;;;5.57;36.94;102924.88;5016920;28;20505;-63
2023/02/09 06:04:52;;;;;;;7.70;3.50;;;;;;;5.52;37.49;102918.84;5034438;28;20037;-64
2023/02/09 06:07:17;;;;;;;8.73;4.70;;;;;;;5.49;36.21;102919.81;5034278;28;20370;-63
2023/02/09 06:09:42;;;;;;;9.93;4.45;;;;;;;5.45;37.22;102914.63;5034585;28;20025;-61
2023/02/09 06:12:08;;;;;;;7.25;3.53;;;;;;;5.44;36.92;102921.75;5033811;28;20037;-63
2023/02/09 06:14:33;;;;;;;12.93;4.30;;;;;;;5.44;37.90;102926.19;5034463;28;20030;-63
2023/02/09 06:16:59;;;;;;;13.18;4.78;;;;;;;5.46;38.24;102929.66;5034313;28;20119;-63
2023/02/09 06:19:24;;;;;;;10.98;4.93;;;;;;;5.48;36.95;102938.44;5033455;28;20442;-64
2023/02/09 06:21:49;;;;;;;9.02;4.78;;;;;;;5.50;37.84;102936.63;5034092;28;20024;-62
2023/02/09 06:24:15;;;;;;;11.73;4.78;;;;;;;5.52;37.10;102948.09;5033947;28;20150;-63
2023/02/09 06:26:41;;;;;;;14.00;5.30;;;;;;;5.54;37.92;102943.59;5033858;28;20057;-64
2023/02/09 06:29:08;;;;;;;11.68;5.00;;;;;;;5.54;38.32;102940.94;5032885;28;20053;-63
2023/02/09 06:31:33;;;;;;;8.38;4.05;;;;;;;5.53;37.05;102939.16;5033694;28;20037;-62
2023/02/09 06:33:59;;;;;;;9.23;4.20;;;;;;;5.51;37.15;102939.22;5034117;28;20040;-63
2023/02/09 06:36:24;;;;;;;11.30;4.18;;;;;;;5.54;38.04;102948.91;5016492;28;20462;-63
2023/02/09 06:38:50;;;;;;;10.85;4.15;;;;;;;5.57;36.95;102949.69;5033770;28;20064;-63
2023/02/09 06:41:15;;;;;;;9.63;5.15;;;;;;;5.61;36.49;102961.94;5033252;28;20486;-63
2023/02/09 06:43:41;;;;;;;7.15;3.90;;;;;;;5.63;38.03;102953.94;5034384;28;20065;-63
2023/02/09 06:46:07;;;;;;;6.88;3.58;;;;;;;5.66;36.89;102965.38;5033865;28;20493;-62
2023/02/09 06:48:33;;;;;;;15.32;5.32;;;;;;;5.70;37.24;102966.13;5033919;28;20033;-63
2023/02/09 06:50:58;;;;;;;11.73;4.70;;;;;;;5.73;37.79;102966.91;5033824;28;20021;-63
2023/02/09 06:53:24;;;;;;;15.00;6.03;;;;;;;5.76;36.45;102966.81;5033486;28;20033;-62
2023/02/09 06:55:49;;;;;;;13.57;6.10;;;;;;;5.80;38.50;102975.59;5033463;28;20405;-62
2023/02/09 06:58:14;;;;;;;14.98;5.38;;;;;;;5.83;37.21;102975.50;5034103;28;20029;-63
2023/02/09 07:00:40;;;;;;;15.32;5.53;;;;;;;5.83;37.70;102962.22;5032402;28;20052;-63
2023/02/09 07:03:05;;;;;;;14.38;6.22;;;;;;;5.85;37.17;102968.38;5032689;28;20099;-63
2023/02/09 07:05:31;;;;;;;15.45;5.78;;;;;;;5.84;38.06;102962.16;5033473;28;20498;-63
2023/02/09 07:07:56;;;;;;;13.98;4.70;;;;;;;5.87;38.51;102961.22;5033342;28;20528;-64
2023/02/09 07:10:21;;;;;;;14.90;6.32;;;;;;;5.91;36.57;102968.19;5033705;28;20398;-64
2023/02/09 07:12:47;;;;;;;17.25;6.53;;;;;;;5.96;38.22;102968.91;5033400;28;20430;-63
2023/02/09 07:15:14;;;;;;;13.23;5.07;;;;;;;6.02;37.09;102966.06;5033570;28;20042;-63
2023/02/09 07:17:41;;;;;;;13.57;5.10;;;;;;;6.10;36.52;102968.50;5033130;28;20065;-63
2023/02/09 07:20:08;;;;;;;14.00;5.65;;;;;;;6.16;37.96;102960.31;5033359;28;20037;-63
2023/02/09 07:22:33;;;;;;;14.05;6.15;;;;;;;6.20;37.19;102952.19;5031907;28;20034;-64
2023/02/09 07:24:59;;;;;;;13.80;5.70;;;;;;;6.26;38.26;102952.00;5032789;28;20047;-63
2023/02/09 07:27:24;;;;;;;11.45;4.80;;;;;;;6.37;36.62;102959.63;5033588;28;20401;-63
2023/02/09 07:29:50;;;;;;;12.85;5.70;;;;;;;6.51;37.63;102964.47;5032859;28;20037;-64
2023/02/09 07:32:15;;;;;;;11.88;5.30;;;;;;;6.68;37.52;102970.13;5033069;28;20034;-61
2023/02/09 07:34:41;;;;;;;16.85;6.00;;;;;;;6.83;37.23;102969.63;5034923;28;20025;-63
2023/02/09 07:37:06;;;;;;;15.63;4.70;;;;;;;6.98;37.66;102963.72;5035125;28;20029;-64
2023/02/09 07:39:32;;;;;;;14.63;4.82;;;;;;;7.14;37.85;102962.28;5033441;28;20389;-64
2023/02/09 07:41:57;;;;;;;7.28;4.50;;;;;;;7.30;38.23;102963.47;5031628;28;20121;-63
2023/02/09 07:44:23;;;;;;;13.30;5.38;;;;;;;7.45;36.62;102962.91;5033025;28;20509;-64
2023/02/09 07:46:49;;;;;;;11.25;5.53;;;;;;;7.59;37.22;102968.59;5032878;28;20048;-64
2023/02/09 07:49:14;;;;;;;15.38;5.07;;;;;;;7.73;37.77;102975.22;5031652;28;20495;-64
2023/02/09 07:51:40;;;;;;;15.63;5.93;;;;;;;7.85;37.50;102974.72;5032559;28;20025;-63
2023/02/09 07:54:07;;;;;;;12.52;5.30;;;;;;;7.97;36.73;102982.28;5033342;28;20029;-63
2023/02/09 07:56:32;;;;;;;16.02;6.05;;;;;;;8.10;36.52;102991.53;5032617;28;20041;-62
2023/02/09 07:58:58;;;;;;;13.65;5.38;;;;;;;8.22;36.41;103001.72;5032806;28;20030;-63
2023/02/09 08:01:23;;;;;;;14.20;6.22;;;;;;;8.30;37.40;102993.44;5031770;28;20029;-64
2023/02/09 08:03:49;;;;;;;16.80;5.88;;;;;;;8.40;37.24;102997.50;5015026;28;20504;-62
2023/02/09 08:06:29;;;;;;;19.48;5.90;;;;;;;8.52;36.81;102994.31;5033023;28;20108;-65
2023/02/09 08:08:54;;;;;;;13.40;5.10;;;;;;;8.63;36.77;102990.28;5031444;28;20044;-64
2023/02/09 08:11:27;;;;;;;14.57;5.47;;;;;;;8.75;36.61;102987.09;5032358;28;20486;-65
2023/02/09 08:13:55;;;;;;;18.38;5.68;;;;;;;8.85;37.33;102973.34;5032690;28;20044;-64
2023/02/09 08:16:24;;;;;;;10.95;5.15;;;;;;;8.93;36.75;102981.91;5032657;28;20048;-63
2023/02/09 08:18:57;;;;;;;13.55;6.82;;;;;;;9.03;36.20;102980.56;5031563;28;20095;-64
2023/02/09 08:21:22;;;;;;;;;;;;;;;9.10;36.06;102992.75;5032436;28;20087;-65
2023/02/09 08:23:51;;;;;;;18.45;5.68;;;;;;;9.18;36.34;102998.63;5031313;28;19916;-64
2023/02/09 08:26:17;;;;;;;18.08;5.63;;;;;;;9.29;36.90;103001.69;5031042;28;20044;-63
2023/02/09 08:28:44;;;;;;;27.48;6.30;;;;;;;9.37;36.12;102996.88;5031264;28;20037;-64
2023/02/09 08:31:15;;;;;;;26.17;6.97;;;;;;;9.48;36.94;102994.59;5032444;28;20029;-64
2023/02/09 08:33:41;;;;;;;13.93;5.95;;;;;;;9.58;37.25;103005.72;5032581;28;20025;-63
2023/02/09 08:36:07;;;;;;;16.30;5.60;;;;;;;9.67;36.60;103005.31;5032546;28;20478;-63
2023/02/09 08:38:33;;;;;;;15.43;5.47;;;;;;;9.73;36.78;103005.91;5032459;28;20041;-64
2023/02/09 08:41:08;;;;;;;14.10;4.95;;;;;;;9.85;36.44;103016.03;5032233;28;20568;-65
2023/02/09 08:43:33;;;;;;;14.18;5.82;;;;;;;9.96;36.24;103023.59;5032514;28;20037;-63
2023/02/09 08:46:05;;;;;;;19.25;6.25;;;;;;;10.07;36.10;103026.63;5032155;28;20394;-64
2023/02/09 08:48:32;;;;;;;15.23;6.93;;;;;;;10.18;36.10;103029.72;5034310;28;20025;-64
2023/02/09 08:50:58;;;;;;;12.48;5.15;;;;;;;10.30;36.27;103029.09;5035963;28;20045;-64
2023/02/09 08:53:24;;;;;;;12.07;5.65;;;;;;;10.40;36.30;103035.78;5036103;28;20498;-65
2023/02/09 08:55:49;;;;;;;11.15;5.35;;;;;;;10.51;36.38;103038.81;5035694;28;20040;-63
2023/02/09 08:58:14;;;;;;;12.60;5.57;;;;;;;10.64;36.09;103039.06;5034308;28;20029;-63
2023/02/09 09:00:40;;;;;;;16.88;6.85;;;;;;;10.78;36.29;103041.94;5034889;28;20029;-65
2023/02/09 09:03:05;;;;;;;18.77;6.22;;;;;;;10.91;35.43;103043.06;5036004;28;20432;-64
2023/02/09 09:05:32;;;;;;;15.30;5.57;;;;;;;11.02;35.89;103046.09;5035516;28;20037;-65
2023/02/09 09:07:58;;;;;;;15.82;6.30;;;;;;;11.16;35.24;103044.50;5035423;28;20038;-63
2023/02/09 09:10:23;;;;;;;16.92;4.78;;;;;;;11.34;35.53;103036.38;5035382;28;20041;-63
2023/02/09 09:12:50;;;;;;;14.13;5.63;;;;;;;11.56;35.63;103036.97;5035597;28;20489;-64
2023/02/09 09:15:15;;;;;;;12.82;6.13;;;;;;;11.80;35.04;103039.34;5035752;28;20036;-64
2023/02/09 09:17:41;;;;;;;19.45;6.30;;;;;;;11.97;35.41;103040.16;5033870;28;20041;-65
2023/02/09 09:20:07;;;;;;;14.50;6.00;;;;;;;12.16;35.11;103035.50;5035520;28;20029;-64
2023/02/09 09:22:32;;;;;;;12.95;5.18;;;;;;;12.28;35.20;103032.09;5037253;28;20405;-63
2023/02/09 09:24:58;;;;;;;15.90;6.88;;;;;;;12.41;34.87;103020.69;5035144;28;20132;-64
2023/02/09 09:27:23;;;;;;;12.80;6.00;;;;;;;12.58;34.01;103026.84;5034598;28;20445;-63
2023/02/09 09:29:48;;;;;;;12.25;5.88;;;;;;;12.81;34.44;103020.13;5034972;28;20034;-62
2023/02/09 09:32:14;;;;;;;18.27;6.05;;;;;;;12.97;34.63;103010.19;5035106;28;20041;-65
2023/02/09 09:34:40;;;;;;;15.90;6.38;;;;;;;13.10;33.58;102995.06;5034914;28;20103;-63
2023/02/09 09:37:05;;;;;;;20.42;5.90;;;;;;;13.34;34.23;103009.72;5034851;28;20112;-64
2023/02/09 09:39:31;;;;;;;13.07;5.85;;;;;;;13.65;33.93;102991.69;5035295;28;20068;-64
2023/02/09 09:41:59;;;;;;;14.13;5.72;;;;;;;13.71;33.99;102985.91;5035011;28;20091;-63
2023/02/09 09:44:30;;;;;;;18.25;5.88;;;;;;;13.72;34.11;102993.91;5034887;28;20052;-63
2023/02/09 09:47:00;;;;;;;13.10;6.13;;;;;;;13.72;34.21;103003.81;5033283;28;20120;-63
2023/02/09 09:49:27;;;;;;;13.52;5.93;;;;;;;13.94;34.12;103012.25;5034624;28;20513;-63
2023/02/09 09:51:57;;;;;;;19.02;6.28;;;;;;;14.20;32.65;103008.78;5034924;28;20049;-64
2023/02/09 09:54:24;;;;;;;13.98;6.50;;;;;;;14.35;33.02;102999.72;5035193;28;20035;-63
2023/02/09 09:56:51;;;;;;;10.85;4.75;;;;;;;14.41;32.26;103003.84;5034599;28;20457;-62
2023/02/09 09:59:25;;;;;;;15.93;5.88;;;;;;;14.65;32.52;103006.75;5033921;28;20041;-63
2023/02/09 10:01:52;;;;;;;12.52;5.97;;;;;;;14.90;33.15;103004.16;5034474;28;20068;-63
2023/02/09 10:04:19;;;;;;;12.68;5.32;;;;;;;14.99;32.90;102998.97;5034353;28;20450;-65
2023/02/09 10:06:47;;;;;;;14.48;5.60;;;;;;;15.15;33.50;102996.97;5034408;28;20030;-66
2023/02/09 10:09:32;;;;;;;10.13;5.47;;;;;;;15.30;31.86;102989.63;5033794;28;20049;-64
2023/02/09 10:12:07;;;;;;;10.20;5.57;;;;;;;15.39;32.59;102998.91;5033402;28;20125;-64
2023/02/09 10:14:32;;;;;;;11.80;5.88;;;;;;;15.30;32.15;102978.81;5016754;28;20033;-65
2023/02/09 10:16:57;;;;;;;13.48;5.85;;;;;;;15.45;32.73;102995.81;5034260;28;20454;-63
2023/02/09 10:19:25;;;;;;;17.63;5.65;;;;;;;15.54;31.15;102977.16;5034501;28;20041;-63
2023/02/09 10:21:52;;;;;;;14.55;6.05;;;;;;;15.73;31.13;102991.09;5033184;28;20109;-63
2023/02/09 10:24:23;;;;;;;14.98;5.53;;;;;;;15.90;31.25;102995.28;5034422;28;20044;-65
2023/02/09 10:27:16;;;;;;;12.07;6.05;;;;;;;15.92;30.76;102989.75;5033979;28;20044;-64
2023/02/09 10:29:41;;;;;;;10.15;5.57;;;;;;;15.80;31.20;102993.34;5033963;28;20045;-64
2023/02/09 10:32:09;;;;;;;11.57;5.65;;;;;;;15.59;31.42;102985.78;5033902;28;20045;-63
2023/02/09 10:34:39;;;;;;;12.27;6.28;;;;;;;15.61;32.41;102986.53;5034056;28;20037;-63
2023/02/09 10:37:23;;;;;;;13.93;6.38;;;;;;;15.70;32.35;102988.59;5034091;28;20032;-63
2023/02/09 10:40:08;;;;;;;10.98;5.45;;;;;;;15.69;31.17;102991.38;5034039;28;20083;-64
2023/02/09 10:42:39;;;;;;;11.25;5.43;;;;;;;15.87;31.87;103005.44;5033644;28;20029;-64
2023/02/09 10:45:15;;;;;;;13.48;6.32;;;;;;;16.09;31.73;103002.91;5033195;28;20017;-64
2023/02/09 10:47:40;;;;;;;16.75;6.25;;;;;;;16.35;31.70;103007.28;5033604;28;20056;-65
2023/02/09 10:50:16;;;;;;;14.68;5.72;;;;;;;16.54;30.65;103002.25;5033607;28;20499;-63
2023/02/09 10:53:04;;;;;;;12.57;5.60;;;;;;;16.85;30.36;103004.38;5033858;28;20068;-64
2023/02/09 10:55:38;;;;;;;11.50;5.65;;;;;;;17.02;30.73;103013.94;5031961;28;20060;-64
2023/02/09 10:58:10;;;;;;;18.10;6.57;;;;;;;17.24;30.36;103026.69;5033574;28;20034;-65
2023/02/09 11:00:41;;;;;;;14.27;6.13;;;;;;;17.41;30.74;103020.81;5033850;28;20075;-65
2023/02/09 11:03:18;;;;;;;14.70;5.65;;;;;;;17.54;30.39;103002.63;5033787;28;20077;-63
2023/02/09 11:05:46;;;;;;;13.90;6.22;;;;;;;17.55;30.80;103001.66;5033272;28;20378;-65
2023/02/09 11:08:18;;;;;;;14.65;6.03;;;;;;;17.65;30.32;103012.63;5033374;28;20045;-65
2023/02/09 11:11:03;;;;;;;16.43;6.80;;;;;;;17.88;30.64;103007.09;5033031;28;20091;-63
2023/02/09 11:13:28;;;;;;;11.23;5.60;;;;;;;18.13;30.85;102996.97;5033278;28;20040;-63
2023/02/09 11:16:12;;;;;;;16.27;6.45;;;;;;;18.28;30.52;103007.44;5033410;28;20034;-65
2023/02/09 11:18:41;;;;;;;15.63;6.78;;;;;;;18.52;29.45;103004.56;5033001;28;20390;-64
2023/02/09 11:21:29;;;;;;;14.60;6.68;;;;;;;18.43;30.15;102989.03;5033449;28;20107;-65
2023/02/09 11:24:00;;;;;;;12.23;5.85;;;;;;;18.55;30.30;102983.47;5031766;28;20513;-64
2023/02/09 11:26:57;;;;;;;14.85;6.40;;;;;;;18.90;30.14;102987.78;5034536;28;20091;-64
2023/02/09 11:29:42;;;;;;;18.17;6.65;;;;;;;19.04;29.42;102988.31;5033023;28;20060;-64
2023/02/09 11:32:19;;;;;;;12.07;5.47;;;;;;;19.15;29.62;102993.69;5032985;28;20048;-65
2023/02/09 11:34:56;;;;;;;13.60;6.07;;;;;;;19.20;29.78;102987.88;5033023;28;20029;-64
2023/02/09 11:38:02;;;;;;;12.52;4.95;;;;;;;19.09;29.83;102990.66;5033172;28;20034;-63